sensor_id;sensor_type;location;lat;lon;timestamp;pressure;altitude;pressure_sealevel;temperature;humidity
52693;BME280;68218;51.012;-1.648;2023-05-29T00:00:24;101573.13;;;12.49;79.61
52693;BME280;68218;51.012;-1.648;2023-05-29T00:02:50;101582.53;;;12.47;79.76
52693;BME280;68218;51.012;-1.648;2023-05-29T00:05:16;101572.94;;;12.39;80.33
52693;BME280;68218;51.012;-1.648;2023-05-29T00:07:43;101577.31;;;12.28;80.59
52693;BME280;68218;51.012;-1.648;2023-05-29T00:10:10;101576.72;;;12.26;80.87
52693;BME280;68218;51.012;-1.648;2023-05-29T00:12:36;101573.81;;;12.16;81.07
52693;BME280;68218;51.012;-1.648;2023-05-29T00:15:03;101582.19;;;12.14;81.01
52693;BME280;68218;51.012;-1.648;2023-05-29T00:17:29;101584.44;;;12.06;81.51
52693;BME280;68218;51.012;-1.648;2023-05-29T00:19:57;101593.88;;;11.91;81.52
52693;BME280;68218;51.012;-1.648;2023-05-29T00:22:23;101592.09;;;11.85;81.21
52693;BME280;68218;51.012;-1.648;2023-05-29T00:24:49;101596.47;;;11.74;81.09
52693;BME280;68218;51.012;-1.648;2023-05-29T00:27:14;101601.97;;;11.68;80.74
52693;BME280;68218;51.012;-1.648;2023-05-29T00:29:40;101588.69;;;11.66;80.62
52693;BME280;68218;51.012;-1.648;2023-05-29T00:32:06;101595.41;;;11.64;80.23
52693;BME280;68218;51.012;-1.648;2023-05-29T00:34:31;101606.91;;;11.59;80.31
52693;BME280;68218;51.012;-1.648;2023-05-29T00:36:57;101601.28;;;11.49;80.40
52693;BME280;68218;51.012;-1.648;2023-05-29T00:39:23;101616.66;;;11.36;80.38
52693;BME280;68218;51.012;-1.648;2023-05-29T00:41:48;101607.84;;;11.41;80.11
52693;BME280;68218;51.012;-1.648;2023-05-29T00:44:20;101611.84;;;11.38;79.71
52693;BME280;68218;51.012;-1.648;2023-05-29T00:46:50;101605.25;;;11.34;79.15
52693;BME280;68218;51.012;-1.648;2023-05-29T00:49:19;101593.50;;;11.17;78.93
52693;BME280;68218;51.012;-1.648;2023-05-29T00:51:45;101597.63;;;11.19;78.21
52693;BME280;68218;51.012;-1.648;2023-05-29T00:54:13;101601.00;;;11.15;77.45
52693;BME280;68218;51.012;-1.648;2023-05-29T00:56:40;101604.28;;;11.05;76.28
52693;BME280;68218;51.012;-1.648;2023-05-29T00:59:09;101608.19;;;11.09;75.29
52693;BME280;68218;51.012;-1.648;2023-05-29T01:01:35;101607.81;;;11.05;75.30
52693;BME280;68218;51.012;-1.648;2023-05-29T01:04:03;101604.03;;;11.06;75.78
52693;BME280;68218;51.012;-1.648;2023-05-29T01:06:28;101603.34;;;10.99;76.97
52693;BME280;68218;51.012;-1.648;2023-05-29T01:08:55;101611.72;;;10.79;77.38
52693;BME280;68218;51.012;-1.648;2023-05-29T01:11:28;101621.13;;;10.77;77.31
52693;BME280;68218;51.012;-1.648;2023-05-29T01:13:57;101620.47;;;10.63;76.25
52693;BME280;68218;51.012;-1.648;2023-05-29T01:16:48;101620.69;;;10.61;74.44
52693;BME280;68218;51.012;-1.648;2023-05-29T01:25:10;101631.22;;;10.51;73.78
52693;BME280;68218;51.012;-1.648;2023-05-29T01:27:37;101634.06;;;10.38;73.77
52693;BME280;68218;51.012;-1.648;2023-05-29T01:30:05;101629.66;;;10.25;74.00
52693;BME280;68218;51.012;-1.648;2023-05-29T01:32:32;101635.13;;;10.18;73.84
52693;BME280;68218;51.012;-1.648;2023-05-29T01:34:58;101634.66;;;10.21;73.24
52693;BME280;68218;51.012;-1.648;2023-05-29T01:37:23;101651.34;;;10.11;72.89
52693;BME280;68218;51.012;-1.648;2023-05-29T01:39:49;101649.47;;;10.12;73.16
52693;BME280;68218;51.012;-1.648;2023-05-29T01:42:15;101644.53;;;10.09;72.52
52693;BME280;68218;51.012;-1.648;2023-05-29T01:44:41;101631.06;;;10.09;71.86
52693;BME280;68218;51.012;-1.648;2023-05-29T01:47:08;101634.22;;;10.06;71.96
52693;BME280;68218;51.012;-1.648;2023-05-29T01:49:34;101636.50;;;10.02;71.91
52693;BME280;68218;51.012;-1.648;2023-05-29T01:52:01;101642.44;;;9.92;72.21
52693;BME280;68218;51.012;-1.648;2023-05-29T01:54:27;101635.41;;;9.91;72.53
52693;BME280;68218;51.012;-1.648;2023-05-29T01:56:52;101645.41;;;9.84;72.38
52693;BME280;68218;51.012;-1.648;2023-05-29T01:59:18;101641.66;;;9.67;72.78
52693;BME280;68218;51.012;-1.648;2023-05-29T02:01:44;101644.72;;;9.70;72.84
52693;BME280;68218;51.012;-1.648;2023-05-29T02:04:10;101647.44;;;9.70;72.19
52693;BME280;68218;51.012;-1.648;2023-05-29T02:06:35;101645.53;;;9.71;72.27
52693;BME280;68218;51.012;-1.648;2023-05-29T02:09:01;101640.59;;;9.68;71.96
52693;BME280;68218;51.012;-1.648;2023-05-29T02:11:27;101634.88;;;9.57;71.59
52693;BME280;68218;51.012;-1.648;2023-05-29T02:13:53;101632.56;;;9.61;71.43
52693;BME280;68218;51.012;-1.648;2023-05-29T02:16:19;101628.91;;;9.55;71.30
52693;BME280;68218;51.012;-1.648;2023-05-29T02:18:46;101634.13;;;9.50;71.42
52693;BME280;68218;51.012;-1.648;2023-05-29T02:21:12;101627.94;;;9.50;71.63
52693;BME280;68218;51.012;-1.648;2023-05-29T02:23:37;101623.63;;;9.42;71.71
52693;BME280;68218;51.012;-1.648;2023-05-29T02:26:03;101625.34;;;9.36;71.97
52693;BME280;68218;51.012;-1.648;2023-05-29T02:28:28;101624.38;;;9.31;72.23
52693;BME280;68218;51.012;-1.648;2023-05-29T02:30:54;101631.38;;;9.32;72.27
52693;BME280;68218;51.012;-1.648;2023-05-29T02:33:19;101637.22;;;9.29;72.41
52693;BME280;68218;51.012;-1.648;2023-05-29T02:35:45;101625.22;;;9.25;72.87
52693;BME280;68218;51.012;-1.648;2023-05-29T02:38:10;101630.50;;;9.13;73.14
52693;BME280;68218;51.012;-1.648;2023-05-29T02:40:35;101635.69;;;9.08;73.43
52693;BME280;68218;51.012;-1.648;2023-05-29T02:43:01;101629.88;;;9.11;73.58
52693;BME280;68218;51.012;-1.648;2023-05-29T02:45:26;101627.78;;;9.13;73.66
52693;BME280;68218;51.012;-1.648;2023-05-29T02:47:52;101624.56;;;9.04;73.82
52693;BME280;68218;51.012;-1.648;2023-05-29T02:50:17;101622.06;;;9.03;73.88
52693;BME280;68218;51.012;-1.648;2023-05-29T02:52:42;101624.97;;;9.01;74.43
52693;BME280;68218;51.012;-1.648;2023-05-29T02:55:08;101626.28;;;8.92;74.50
52693;BME280;68218;51.012;-1.648;2023-05-29T02:57:33;101632.72;;;8.91;74.87
52693;BME280;68218;51.012;-1.648;2023-05-29T02:59:59;101616.00;;;8.82;75.03
52693;BME280;68218;51.012;-1.648;2023-05-29T03:02:26;101621.22;;;8.77;75.02
52693;BME280;68218;51.012;-1.648;2023-05-29T03:04:52;101622.22;;;8.83;74.86
52693;BME280;68218;51.012;-1.648;2023-05-29T03:07:19;101612.06;;;8.85;75.07
52693;BME280;68218;51.012;-1.648;2023-05-29T03:09:44;101627.81;;;8.81;74.96
52693;BME280;68218;51.012;-1.648;2023-05-29T03:12:09;101621.88;;;8.72;75.21
52693;BME280;68218;51.012;-1.648;2023-05-29T03:14:36;101606.38;;;8.68;75.45
52693;BME280;68218;51.012;-1.648;2023-05-29T03:17:04;101607.03;;;8.56;75.74
52693;BME280;68218;51.012;-1.648;2023-05-29T03:19:30;101616.97;;;8.62;75.66
52693;BME280;68218;51.012;-1.648;2023-05-29T03:21:55;101619.22;;;8.66;75.62
52693;BME280;68218;51.012;-1.648;2023-05-29T03:24:21;101623.16;;;8.63;75.67
52693;BME280;68218;51.012;-1.648;2023-05-29T03:26:48;101617.81;;;8.56;75.93
52693;BME280;68218;51.012;-1.648;2023-05-29T03:29:15;101624.03;;;8.57;75.86
52693;BME280;68218;51.012;-1.648;2023-05-29T03:31:41;101620.69;;;8.55;75.80
52693;BME280;68218;51.012;-1.648;2023-05-29T03:34:06;101623.19;;;8.56;75.89
52693;BME280;68218;51.012;-1.648;2023-05-29T03:36:32;101629.22;;;8.52;76.31
52693;BME280;68218;51.012;-1.648;2023-05-29T03:38:58;101621.41;;;8.43;76.22
52693;BME280;68218;51.012;-1.648;2023-05-29T03:41:23;101631.09;;;8.44;76.50
52693;BME280;68218;51.012;-1.648;2023-05-29T03:43:50;101643.50;;;8.46;76.33
52693;BME280;68218;51.012;-1.648;2023-05-29T03:46:16;101638.13;;;8.39;76.50
52693;BME280;68218;51.012;-1.648;2023-05-29T03:48:41;101642.09;;;8.36;76.76
52693;BME280;68218;51.012;-1.648;2023-05-29T03:51:06;101646.59;;;8.36;76.88
52693;BME280;68218;51.012;-1.648;2023-05-29T03:53:32;101652.00;;;8.29;77.00
52693;BME280;68218;51.012;-1.648;2023-05-29T03:55:57;101657.81;;;8.26;77.26
52693;BME280;68218;51.012;-1.648;2023-05-29T03:58:22;101642.97;;;8.17;77.50
52693;BME280;68218;51.012;-1.648;2023-05-29T04:00:48;101647.69;;;8.28;77.59
52693;BME280;68218;51.012;-1.648;2023-05-29T04:03:13;101653.06;;;8.21;77.56
52693;BME280;68218;51.012;-1.648;2023-05-29T04:05:39;101664.22;;;8.25;77.48
52693;BME280;68218;51.012;-1.648;2023-05-29T04:08:04;101660.31;;;8.21;78.10
52693;BME280;68218;51.012;-1.648;2023-05-29T04:10:30;101657.63;;;8.21;78.11
52693;BME280;68218;51.012;-1.648;2023-05-29T04:12:59;101661.97;;;8.22;78.16
52693;BME280;68218;51.012;-1.648;2023-05-29T04:15:24;101655.97;;;8.20;78.21
52693;BME280;68218;51.012;-1.648;2023-05-29T04:17:50;101655.16;;;8.19;78.27
52693;BME280;68218;51.012;-1.648;2023-05-29T04:20:15;101654.72;;;8.22;78.47
52693;BME280;68218;51.012;-1.648;2023-05-29T04:22:41;101652.03;;;8.22;78.45
52693;BME280;68218;51.012;-1.648;2023-05-29T04:25:06;101641.53;;;8.07;78.85
52693;BME280;68218;51.012;-1.648;2023-05-29T04:27:32;101660.56;;;8.13;79.06
52693;BME280;68218;51.012;-1.648;2023-05-29T04:30:05;101662.81;;;8.16;79.23
52693;BME280;68218;51.012;-1.648;2023-05-29T04:32:31;101671.28;;;8.13;79.56
52693;BME280;68218;51.012;-1.648;2023-05-29T04:34:58;101667.16;;;8.10;79.86
52693;BME280;68218;51.012;-1.648;2023-05-29T04:37:28;101672.13;;;8.06;80.37
52693;BME280;68218;51.012;-1.648;2023-05-29T04:39:55;101675.41;;;8.09;80.53
52693;BME280;68218;51.012;-1.648;2023-05-29T04:42:21;101675.81;;;8.12;80.49
52693;BME280;68218;51.012;-1.648;2023-05-29T04:44:48;101679.16;;;8.07;80.82
52693;BME280;68218;51.012;-1.648;2023-05-29T04:47:14;101671.28;;;8.13;80.78
52693;BME280;68218;51.012;-1.648;2023-05-29T04:49:41;101671.88;;;8.21;80.88
52693;BME280;68218;51.012;-1.648;2023-05-29T04:52:07;101675.19;;;8.17;80.52
52693;BME280;68218;51.012;-1.648;2023-05-29T04:54:32;101688.63;;;8.23;80.41
52693;BME280;68218;51.012;-1.648;2023-05-29T04:56:59;101685.53;;;8.27;80.04
52693;BME280;68218;51.012;-1.648;2023-05-29T04:59:24;101686.94;;;8.42;79.95
52693;BME280;68218;51.012;-1.648;2023-05-29T05:01:51;101692.91;;;8.38;79.88
52693;BME280;68218;51.012;-1.648;2023-05-29T05:04:17;101694.16;;;8.42;79.52
52693;BME280;68218;51.012;-1.648;2023-05-29T05:06:42;101692.28;;;8.56;79.60
52693;BME280;68218;51.012;-1.648;2023-05-29T05:09:09;101685.91;;;8.50;79.43
52693;BME280;68218;51.012;-1.648;2023-05-29T05:11:35;101694.16;;;8.55;79.06
52693;BME280;68218;51.012;-1.648;2023-05-29T05:14:00;101690.41;;;8.56;78.85
52693;BME280;68218;51.012;-1.648;2023-05-29T05:16:26;101697.44;;;8.57;78.92
52693;BME280;68218;51.012;-1.648;2023-05-29T05:18:51;101698.03;;;8.66;78.68
52693;BME280;68218;51.012;-1.648;2023-05-29T05:21:16;101697.59;;;8.69;78.24
52693;BME280;68218;51.012;-1.648;2023-05-29T05:23:42;101707.31;;;8.70;78.44
52693;BME280;68218;51.012;-1.648;2023-05-29T05:26:07;101700.44;;;8.81;78.42
52693;BME280;68218;51.012;-1.648;2023-05-29T05:28:32;101700.41;;;8.88;77.98
52693;BME280;68218;51.012;-1.648;2023-05-29T05:30:59;101702.59;;;9.04;77.34
52693;BME280;68218;51.012;-1.648;2023-05-29T05:33:24;101703.06;;;8.94;77.12
52693;BME280;68218;51.012;-1.648;2023-05-29T05:35:50;101706.06;;;9.11;77.00
52693;BME280;68218;51.012;-1.648;2023-05-29T05:38:15;101688.06;;;9.12;77.13
52693;BME280;68218;51.012;-1.648;2023-05-29T05:40:41;101702.25;;;9.26;76.56
52693;BME280;68218;51.012;-1.648;2023-05-29T05:43:06;101696.88;;;9.26;75.92
52693;BME280;68218;51.012;-1.648;2023-05-29T05:45:32;101701.19;;;9.27;76.06
52693;BME280;68218;51.012;-1.648;2023-05-29T05:47:57;101700.13;;;9.34;75.80
52693;BME280;68218;51.012;-1.648;2023-05-29T05:50:23;101692.09;;;9.28;75.77
52693;BME280;68218;51.012;-1.648;2023-05-29T05:52:49;101706.94;;;9.37;75.24
52693;BME280;68218;51.012;-1.648;2023-05-29T05:55:15;101704.53;;;9.54;74.85
52693;BME280;68218;51.012;-1.648;2023-05-29T05:57:40;101707.34;;;9.66;74.86
52693;BME280;68218;51.012;-1.648;2023-05-29T06:00:06;101702.38;;;9.63;74.31
52693;BME280;68218;51.012;-1.648;2023-05-29T06:02:50;101704.16;;;9.75;73.70
52693;BME280;68218;51.012;-1.648;2023-05-29T06:05:16;101715.59;;;9.71;73.44
52693;BME280;68218;51.012;-1.648;2023-05-29T06:07:42;101714.00;;;9.63;72.74
52693;BME280;68218;51.012;-1.648;2023-05-29T06:10:07;101705.25;;;9.68;72.69
52693;BME280;68218;51.012;-1.648;2023-05-29T06:12:33;101716.06;;;9.86;72.13
52693;BME280;68218;51.012;-1.648;2023-05-29T06:15:00;101710.63;;;9.93;72.46
52693;BME280;68218;51.012;-1.648;2023-05-29T06:17:25;101712.94;;;9.89;72.20
52693;BME280;68218;51.012;-1.648;2023-05-29T06:19:50;101707.28;;;9.98;71.49
52693;BME280;68218;51.012;-1.648;2023-05-29T06:22:17;101731.25;;;10.06;70.65
52693;BME280;68218;51.012;-1.648;2023-05-29T06:24:44;101718.53;;;10.13;70.45
52693;BME280;68218;51.012;-1.648;2023-05-29T06:27:10;101714.28;;;10.24;70.02
52693;BME280;68218;51.012;-1.648;2023-05-29T06:29:35;101721.88;;;10.34;69.69
52693;BME280;68218;51.012;-1.648;2023-05-29T06:32:01;101713.91;;;10.20;69.35
52693;BME280;68218;51.012;-1.648;2023-05-29T06:34:26;101712.28;;;10.38;69.42
52693;BME280;68218;51.012;-1.648;2023-05-29T06:36:52;101716.47;;;10.34;68.79
52693;BME280;68218;51.012;-1.648;2023-05-29T06:39:17;101711.22;;;10.57;68.89
52693;BME280;68218;51.012;-1.648;2023-05-29T06:41:46;101722.47;;;10.36;68.48
52693;BME280;68218;51.012;-1.648;2023-05-29T06:44:11;101703.03;;;10.64;68.81
52693;BME280;68218;51.012;-1.648;2023-05-29T06:46:37;101726.13;;;10.60;67.04
52693;BME280;68218;51.012;-1.648;2023-05-29T06:49:02;101713.91;;;10.76;67.68
52693;BME280;68218;51.012;-1.648;2023-05-29T06:51:28;101713.59;;;10.84;67.75
52693;BME280;68218;51.012;-1.648;2023-05-29T06:53:53;101713.78;;;11.01;65.63
52693;BME280;68218;51.012;-1.648;2023-05-29T06:56:18;101717.06;;;11.33;65.02
52693;BME280;68218;51.012;-1.648;2023-05-29T06:58:44;101714.41;;;11.15;64.25
52693;BME280;68218;51.012;-1.648;2023-05-29T07:01:10;101722.38;;;11.10;64.92
52693;BME280;68218;51.012;-1.648;2023-05-29T07:03:36;101703.66;;;11.27;64.57
52693;BME280;68218;51.012;-1.648;2023-05-29T07:06:02;101707.72;;;11.59;64.50
52693;BME280;68218;51.012;-1.648;2023-05-29T07:08:27;101714.84;;;11.42;63.22
52693;BME280;68218;51.012;-1.648;2023-05-29T07:10:53;101707.34;;;11.56;62.71
52693;BME280;68218;51.012;-1.648;2023-05-29T07:13:18;101704.78;;;11.61;63.04
52693;BME280;68218;51.012;-1.648;2023-05-29T07:15:45;101709.75;;;11.76;62.02
52693;BME280;68218;51.012;-1.648;2023-05-29T07:18:11;101711.38;;;11.89;62.90
52693;BME280;68218;51.012;-1.648;2023-05-29T07:20:36;101706.50;;;12.62;60.42
52693;BME280;68218;51.012;-1.648;2023-05-29T07:23:02;101713.75;;;12.73;59.36
52693;BME280;68218;51.012;-1.648;2023-05-29T07:25:29;101704.91;;;12.37;59.23
52693;BME280;68218;51.012;-1.648;2023-05-29T07:27:54;101716.19;;;11.87;60.20
52693;BME280;68218;51.012;-1.648;2023-05-29T07:30:20;101714.28;;;12.58;58.92
52693;BME280;68218;51.012;-1.648;2023-05-29T07:32:45;101717.69;;;12.65;58.51
52693;BME280;68218;51.012;-1.648;2023-05-29T07:35:11;101723.16;;;12.18;59.49
52693;BME280;68218;51.012;-1.648;2023-05-29T07:37:36;101717.47;;;12.43;58.67
52693;BME280;68218;51.012;-1.648;2023-05-29T07:40:02;101718.13;;;13.03;57.81
52693;BME280;68218;51.012;-1.648;2023-05-29T07:42:31;101727.13;;;12.91;57.60
52693;BME280;68218;51.012;-1.648;2023-05-29T07:44:56;101722.56;;;12.40;58.93
52693;BME280;68218;51.012;-1.648;2023-05-29T07:47:22;101719.38;;;12.83;59.20
52693;BME280;68218;51.012;-1.648;2023-05-29T07:49:47;101719.84;;;13.09;58.34
52693;BME280;68218;51.012;-1.648;2023-05-29T07:52:12;101718.19;;;12.91;58.11
52693;BME280;68218;51.012;-1.648;2023-05-29T07:54:38;101715.09;;;12.99;58.26
52693;BME280;68218;51.012;-1.648;2023-05-29T07:57:03;101718.34;;;13.30;56.14
52693;BME280;68218;51.012;-1.648;2023-05-29T07:59:34;101721.31;;;13.28;56.89
52693;BME280;68218;51.012;-1.648;2023-05-29T08:02:00;101717.25;;;13.77;55.49
52693;BME280;68218;51.012;-1.648;2023-05-29T08:04:28;101718.84;;;14.12;55.37
52693;BME280;68218;51.012;-1.648;2023-05-29T08:06:53;101710.59;;;14.23;55.32
52693;BME280;68218;51.012;-1.648;2023-05-29T08:09:18;101712.13;;;14.75;54.45
52693;BME280;68218;51.012;-1.648;2023-05-29T08:11:44;101725.50;;;14.60;54.05
52693;BME280;68218;51.012;-1.648;2023-05-29T08:14:12;101722.25;;;14.63;52.73
52693;BME280;68218;51.012;-1.648;2023-05-29T08:16:37;101712.53;;;14.89;53.36
52693;BME280;68218;51.012;-1.648;2023-05-29T08:19:03;101731.41;;;14.57;53.24
52693;BME280;68218;51.012;-1.648;2023-05-29T08:21:29;101731.19;;;14.02;53.28
52693;BME280;68218;51.012;-1.648;2023-05-29T08:23:57;101727.34;;;15.04;52.87
52693;BME280;68218;51.012;-1.648;2023-05-29T08:26:22;101725.34;;;14.72;51.82
52693;BME280;68218;51.012;-1.648;2023-05-29T08:28:48;101734.47;;;14.04;53.56
52693;BME280;68218;51.012;-1.648;2023-05-29T08:31:13;101745.47;;;14.15;53.06
52693;BME280;68218;51.012;-1.648;2023-05-29T08:33:38;101727.44;;;14.26;53.27
52693;BME280;68218;51.012;-1.648;2023-05-29T08:36:05;101718.41;;;14.81;51.79
52693;BME280;68218;51.012;-1.648;2023-05-29T08:38:31;101720.13;;;14.65;52.29
52693;BME280;68218;51.012;-1.648;2023-05-29T08:40:57;101715.22;;;14.62;52.71
52693;BME280;68218;51.012;-1.648;2023-05-29T08:43:30;101723.03;;;15.08;52.56
52693;BME280;68218;51.012;-1.648;2023-05-29T08:45:59;101725.41;;;14.33;52.57
52693;BME280;68218;51.012;-1.648;2023-05-29T08:48:27;101721.03;;;14.54;52.58
52693;BME280;68218;51.012;-1.648;2023-05-29T08:50:54;101734.50;;;13.88;53.49
52693;BME280;68218;51.012;-1.648;2023-05-29T08:53:24;101716.59;;;14.03;53.90
52693;BME280;68218;51.012;-1.648;2023-05-29T08:55:50;101726.06;;;14.23;52.40
52693;BME280;68218;51.012;-1.648;2023-05-29T08:58:17;101707.41;;;14.93;52.96
52693;BME280;68218;51.012;-1.648;2023-05-29T09:00:44;101716.59;;;14.48;52.33
52693;BME280;68218;51.012;-1.648;2023-05-29T09:03:10;101713.09;;;14.91;51.77
52693;BME280;68218;51.012;-1.648;2023-05-29T09:05:38;101726.38;;;14.66;51.06
52693;BME280;68218;51.012;-1.648;2023-05-29T09:08:05;101715.56;;;15.20;50.26
52693;BME280;68218;51.012;-1.648;2023-05-29T09:10:32;101710.59;;;15.12;50.23
52693;BME280;68218;51.012;-1.648;2023-05-29T09:12:58;101719.19;;;14.37;51.29
52693;BME280;68218;51.012;-1.648;2023-05-29T09:15:24;101719.84;;;14.67;51.46
52693;BME280;68218;51.012;-1.648;2023-05-29T09:17:53;101720.94;;;15.15;51.12
52693;BME280;68218;51.012;-1.648;2023-05-29T09:20:20;101726.75;;;15.88;47.88
52693;BME280;68218;51.012;-1.648;2023-05-29T09:23:00;101720.13;;;16.17;48.83
52693;BME280;68218;51.012;-1.648;2023-05-29T09:25:27;101728.41;;;15.89;47.47
52693;BME280;68218;51.012;-1.648;2023-05-29T09:28:01;101718.06;;;16.39;46.56
52693;BME280;68218;51.012;-1.648;2023-05-29T09:30:44;101716.75;;;16.47;45.93
52693;BME280;68218;51.012;-1.648;2023-05-29T09:33:12;101724.94;;;15.99;46.01
52693;BME280;68218;51.012;-1.648;2023-05-29T09:35:40;101721.69;;;16.60;46.07
52693;BME280;68218;51.012;-1.648;2023-05-29T09:38:07;101724.31;;;16.35;47.09
52693;BME280;68218;51.012;-1.648;2023-05-29T09:40:36;101724.16;;;16.67;46.75
52693;BME280;68218;51.012;-1.648;2023-05-29T09:43:09;101721.69;;;16.60;45.42
52693;BME280;68218;51.012;-1.648;2023-05-29T09:45:42;101734.38;;;16.97;46.22
52693;BME280;68218;51.012;-1.648;2023-05-29T09:48:14;101729.09;;;16.12;47.49
52693;BME280;68218;51.012;-1.648;2023-05-29T09:50:40;101733.38;;;16.03;45.53
52693;BME280;68218;51.012;-1.648;2023-05-29T09:53:23;101730.31;;;16.37;47.00
52693;BME280;68218;51.012;-1.648;2023-05-29T09:55:50;101732.19;;;16.99;44.67
52693;BME280;68218;51.012;-1.648;2023-05-29T09:58:19;101725.38;;;16.87;45.63
52693;BME280;68218;51.012;-1.648;2023-05-29T10:00:46;101719.69;;;17.03;45.28
52693;BME280;68218;51.012;-1.648;2023-05-29T10:03:12;101737.28;;;16.75;44.79
52693;BME280;68218;51.012;-1.648;2023-05-29T10:05:39;101735.31;;;16.02;47.30
52693;BME280;68218;51.012;-1.648;2023-05-29T10:08:06;101731.25;;;16.63;46.71
52693;BME280;68218;51.012;-1.648;2023-05-29T10:10:34;101732.53;;;16.50;47.00
52693;BME280;68218;51.012;-1.648;2023-05-29T10:13:05;101726.06;;;16.61;46.61
52693;BME280;68218;51.012;-1.648;2023-05-29T10:15:32;101715.16;;;16.61;45.87
52693;BME280;68218;51.012;-1.648;2023-05-29T10:18:06;101721.53;;;16.24;46.75
52693;BME280;68218;51.012;-1.648;2023-05-29T10:20:35;101722.19;;;17.15;44.26
52693;BME280;68218;51.012;-1.648;2023-05-29T10:23:03;101721.75;;;16.81;45.08
52693;BME280;68218;51.012;-1.648;2023-05-29T10:25:31;101735.75;;;16.95;43.94
52693;BME280;68218;51.012;-1.648;2023-05-29T10:27:58;101728.13;;;16.34;45.20
52693;BME280;68218;51.012;-1.648;2023-05-29T10:30:43;101715.34;;;17.13;44.96
52693;BME280;68218;51.012;-1.648;2023-05-29T10:36:12;101719.47;;;18.03;45.54
52693;BME280;68218;51.012;-1.648;2023-05-29T10:38:41;101717.84;;;18.67;41.90
52693;BME280;68218;51.012;-1.648;2023-05-29T10:44:00;101731.19;;;17.36;44.16
52693;BME280;68218;51.012;-1.648;2023-05-29T10:49:17;101720.28;;;17.83;43.06
52693;BME280;68218;51.012;-1.648;2023-05-29T10:51:42;101719.75;;;17.91;42.89
52693;BME280;68218;51.012;-1.648;2023-05-29T10:54:08;101703.69;;;18.60;42.99
52693;BME280;68218;51.012;-1.648;2023-05-29T10:56:34;101720.81;;;17.90;41.88
52693;BME280;68218;51.012;-1.648;2023-05-29T10:59:00;101714.44;;;16.81;44.13
52693;BME280;68218;51.012;-1.648;2023-05-29T11:01:29;101702.81;;;17.58;44.17
52693;BME280;68218;51.012;-1.648;2023-05-29T11:06:43;101699.81;;;17.49;43.00
52693;BME280;68218;51.012;-1.648;2023-05-29T11:09:32;101699.94;;;18.40;42.73
52693;BME280;68218;51.012;-1.648;2023-05-29T11:12:16;101700.50;;;18.97;42.14
52693;BME280;68218;51.012;-1.648;2023-05-29T11:15:11;101697.13;;;19.11;41.33
52693;BME280;68218;51.012;-1.648;2023-05-29T11:20:06;101703.31;;;18.11;41.37
52693;BME280;68218;51.012;-1.648;2023-05-29T11:23:03;101694.88;;;19.23;41.30
52693;BME280;68218;51.012;-1.648;2023-05-29T11:25:28;101675.38;;;19.93;39.07
52693;BME280;68218;51.012;-1.648;2023-05-29T11:27:53;101688.06;;;19.15;39.39
52693;BME280;68218;51.012;-1.648;2023-05-29T11:30:20;101691.34;;;17.66;42.45
52693;BME280;68218;51.012;-1.648;2023-05-29T11:32:47;101697.88;;;18.11;42.85
52693;BME280;68218;51.012;-1.648;2023-05-29T11:35:13;101695.03;;;18.37;40.22
52693;BME280;68218;51.012;-1.648;2023-05-29T11:37:40;101702.78;;;17.78;41.38
52693;BME280;68218;51.012;-1.648;2023-05-29T11:40:11;101703.81;;;18.24;40.76
52693;BME280;68218;51.012;-1.648;2023-05-29T11:42:41;101695.16;;;18.06;41.61
52693;BME280;68218;51.012;-1.648;2023-05-29T11:45:13;101699.22;;;18.14;42.43
52693;BME280;68218;51.012;-1.648;2023-05-29T11:47:59;101680.69;;;19.50;40.43
52693;BME280;68218;51.012;-1.648;2023-05-29T11:50:26;101686.25;;;19.69;40.16
52693;BME280;68218;51.012;-1.648;2023-05-29T11:52:52;101682.81;;;19.24;39.29
52693;BME280;68218;51.012;-1.648;2023-05-29T11:55:19;101679.91;;;19.74;39.04
52693;BME280;68218;51.012;-1.648;2023-05-29T11:57:45;101687.38;;;18.44;41.19
52693;BME280;68218;51.012;-1.648;2023-05-29T12:00:15;101686.81;;;18.47;41.24
52693;BME280;68218;51.012;-1.648;2023-05-29T12:02:41;101679.41;;;18.53;41.13
52693;BME280;68218;51.012;-1.648;2023-05-29T12:05:13;101664.94;;;18.52;41.18
52693;BME280;68218;51.012;-1.648;2023-05-29T12:07:54;101673.22;;;18.32;41.80
52693;BME280;68218;51.012;-1.648;2023-05-29T12:10:23;101672.78;;;17.89;41.93
52693;BME280;68218;51.012;-1.648;2023-05-29T12:12:59;101692.97;;;17.98;41.98
52693;BME280;68218;51.012;-1.648;2023-05-29T12:15:26;101667.72;;;18.42;41.49
52693;BME280;68218;51.012;-1.648;2023-05-29T12:17:53;101667.38;;;18.49;40.66
52693;BME280;68218;51.012;-1.648;2023-05-29T12:20:21;101673.78;;;19.23;39.27
52693;BME280;68218;51.012;-1.648;2023-05-29T12:22:47;101661.84;;;19.78;39.64
52693;BME280;68218;51.012;-1.648;2023-05-29T12:27:39;101669.19;;;19.14;38.56
52693;BME280;68218;51.012;-1.648;2023-05-29T12:30:29;101657.72;;;20.48;42.21
52693;BME280;68218;51.012;-1.648;2023-05-29T12:32:54;101670.06;;;20.69;37.83
52693;BME280;68218;51.012;-1.648;2023-05-29T12:35:22;101663.25;;;21.05;36.13
52693;BME280;68218;51.012;-1.648;2023-05-29T12:38:02;101674.09;;;20.53;36.21
52693;BME280;68218;51.012;-1.648;2023-05-29T12:40:31;101662.44;;;20.42;38.49
52693;BME280;68218;51.012;-1.648;2023-05-29T12:42:59;101658.59;;;20.67;37.53
52693;BME280;68218;51.012;-1.648;2023-05-29T12:45:25;101658.88;;;20.66;37.20
52693;BME280;68218;51.012;-1.648;2023-05-29T12:47:57;101664.06;;;19.76;38.79
52693;BME280;68218;51.012;-1.648;2023-05-29T12:55:24;101664.06;;;20.24;37.77
52693;BME280;68218;51.012;-1.648;2023-05-29T12:57:50;101660.97;;;20.31;37.00
52693;BME280;68218;51.012;-1.648;2023-05-29T13:00:16;101669.25;;;19.72;38.27
52693;BME280;68218;51.012;-1.648;2023-05-29T13:02:41;101679.81;;;19.84;38.47
52693;BME280;68218;51.012;-1.648;2023-05-29T13:05:07;101677.22;;;19.39;40.25
52693;BME280;68218;51.012;-1.648;2023-05-29T13:07:33;101677.59;;;20.15;38.38
52693;BME280;68218;51.012;-1.648;2023-05-29T13:09:59;101680.25;;;18.98;39.43